createdAt,value
2018-08-24T00:01:04.653Z,4.33
2018-08-24T00:03:33.905Z,2.23
2018-08-24T00:06:03.290Z,3.93
2018-08-24T00:08:32.761Z,3.40
2018-08-24T00:11:02.179Z,3.00
2018-08-24T00:13:31.685Z,3.50
2018-08-24T00:16:00.904Z,3.07
2018-08-24T00:18:30.330Z,2.63
2018-08-24T00:20:59.809Z,3.53
2018-08-24T00:23:29.028Z,3.00
2018-08-24T00:25:58.946Z,3.30
2018-08-24T00:28:28.038Z,3.80
2018-08-24T00:30:57.273Z,4.13
2018-08-24T00:33:26.733Z,3.77
2018-08-24T00:35:56.287Z,6.03
2018-08-24T00:38:25.782Z,4.70
2018-08-24T00:40:56.984Z,5.20
2018-08-24T00:43:29.184Z,4.33
2018-08-24T00:45:58.576Z,7.60
2018-08-24T00:48:28.081Z,5.13
2018-08-24T00:50:57.503Z,5.23
2018-08-24T00:53:27.004Z,6.60
2018-08-24T00:55:56.338Z,6.20
2018-08-24T00:58:25.603Z,6.93
2018-08-24T01:01:04.171Z,7.47
2018-08-24T01:03:33.470Z,5.97
2018-08-24T01:06:03.512Z,6.47
2018-08-24T01:08:32.703Z,6.23
2018-08-24T01:11:02.061Z,8.20
2018-08-24T01:13:31.374Z,6.57
2018-08-24T01:16:01.985Z,6.27
2018-08-24T01:18:36.384Z,10.03
2018-08-24T01:21:05.802Z,9.33
2018-08-24T01:23:35.434Z,8.30
2018-08-24T01:26:07.650Z,8.63
2018-08-24T01:28:36.989Z,9.73
2018-08-24T01:31:08.299Z,8.70
2018-08-24T01:33:37.756Z,8.47
2018-08-24T01:36:07.198Z,9.23
2018-08-24T01:38:36.760Z,10.03
2018-08-24T01:41:05.945Z,9.20
2018-08-24T01:43:35.211Z,11.23
2018-08-24T01:46:14.763Z,9.03
2018-08-24T01:48:44.168Z,7.37
2018-08-24T01:51:13.365Z,8.03
2018-08-24T01:53:42.704Z,6.93
2018-08-24T01:56:12.630Z,4.90
2018-08-24T01:58:41.962Z,6.47
2018-08-24T02:01:11.308Z,7.03
2018-08-24T02:03:40.671Z,7.67
2018-08-24T02:06:10.071Z,7.57
2018-08-24T02:08:39.399Z,9.70
2018-08-24T02:11:13.642Z,9.30
2018-08-24T02:13:48.053Z,9.67
2018-08-24T02:16:18.533Z,9.03
2018-08-24T02:18:52.849Z,9.57
2018-08-24T02:21:27.329Z,9.53
2018-08-24T02:23:56.689Z,10.13
2018-08-24T02:26:27.426Z,10.10
2018-08-24T02:28:56.822Z,9.07
2018-08-24T02:31:26.059Z,8.63
2018-08-24T02:33:55.336Z,9.80
2018-08-24T02:36:25.680Z,10.83
2018-08-24T02:38:55.113Z,13.37
2018-08-24T02:41:24.465Z,11.13
2018-08-24T02:43:53.824Z,11.60
2018-08-24T02:46:23.397Z,14.20
2018-08-24T02:48:52.773Z,17.40
2018-08-24T02:51:22.017Z,20.47
2018-08-24T02:53:51.310Z,23.57
2018-08-24T02:56:20.586Z,21.37
2018-08-24T02:58:49.753Z,22.80
2018-08-24T03:01:19.138Z,27.50
2018-08-24T03:03:48.453Z,22.87
2018-08-24T03:06:17.865Z,22.67
2018-08-24T03:08:47.155Z,24.50
2018-08-24T03:11:16.489Z,25.87
2018-08-24T03:13:45.779Z,29.63
2018-08-24T03:16:15.116Z,31.43
2018-08-24T03:18:44.580Z,30.37
2018-08-24T03:21:15.725Z,31.60
2018-08-24T03:23:45.184Z,32.90
2018-08-24T03:26:14.492Z,34.87
2018-08-24T03:28:43.803Z,36.07
2018-08-24T03:31:13.123Z,34.50
2018-08-24T03:33:42.348Z,34.97
2018-08-24T03:36:11.830Z,36.27
2018-08-24T03:38:41.335Z,34.87
2018-08-24T03:41:10.703Z,31.93
2018-08-24T03:43:39.981Z,32.20
2018-08-24T03:46:09.179Z,32.23
2018-08-24T03:48:38.476Z,32.43
2018-08-24T03:51:07.748Z,29.90
2018-08-24T03:53:37.686Z,30.77
2018-08-24T03:56:07.012Z,27.30
2018-08-24T03:58:36.318Z,30.13
2018-08-24T04:01:05.759Z,31.27
2018-08-24T04:03:35.038Z,31.43
2018-08-24T04:06:04.301Z,29.53
2018-08-24T04:08:33.531Z,27.60
2018-08-24T04:11:02.950Z,27.47
2018-08-24T04:13:32.390Z,28.13
2018-08-24T04:16:01.731Z,29.53
2018-08-24T04:18:31.207Z,30.20
2018-08-24T04:21:00.397Z,26.97
2018-08-24T04:23:29.663Z,28.97
2018-08-24T04:25:59.144Z,29.73
2018-08-24T04:28:28.638Z,28.10
2018-08-24T04:30:57.966Z,32.23
2018-08-24T04:33:27.280Z,35.20
2018-08-24T04:35:56.547Z,34.57
2018-08-24T04:38:25.885Z,32.87
2018-08-24T04:40:55.164Z,41.97
2018-08-24T04:43:25.641Z,38.70
2018-08-24T04:45:55.033Z,35.13
2018-08-24T04:48:24.393Z,41.27
2018-08-24T04:50:53.822Z,38.70
2018-08-24T04:53:23.239Z,38.93
2018-08-24T04:55:52.715Z,39.60
2018-08-24T04:58:26.579Z,39.17
2018-08-24T05:00:56.050Z,44.90
2018-08-24T05:03:25.505Z,41.03
2018-08-24T05:05:54.800Z,40.10
2018-08-24T05:08:24.074Z,42.73
2018-08-24T05:10:53.498Z,41.60
2018-08-24T05:13:22.716Z,40.87
2018-08-24T05:15:52.152Z,39.60
2018-08-24T05:18:21.464Z,46.37
2018-08-24T05:20:50.776Z,48.40
2018-08-24T05:23:20.095Z,41.03
2018-08-24T05:25:49.200Z,41.83
2018-08-24T05:28:18.810Z,43.63
2018-08-24T05:30:48.018Z,42.47
2018-08-24T05:33:17.241Z,41.83
2018-08-24T05:35:46.596Z,41.70
2018-08-24T05:38:16.210Z,45.03
2018-08-24T05:40:45.548Z,45.03
2018-08-24T05:43:15.068Z,37.23
2018-08-24T05:45:44.394Z,44.73
2018-08-24T05:48:13.738Z,44.73
2018-08-24T05:50:42.998Z,45.67
2018-08-24T05:53:12.285Z,45.53
2018-08-24T05:55:41.858Z,46.93
2018-08-24T05:58:11.596Z,44.73
2018-08-24T06:00:42.394Z,43.37
2018-08-24T06:03:11.720Z,44.27
2018-08-24T06:05:46.043Z,43.03
2018-08-24T06:08:15.534Z,40.90
2018-08-24T06:10:44.901Z,39.00
2018-08-24T06:13:17.833Z,40.70
2018-08-24T06:15:48.819Z,39.60
2018-08-24T06:18:18.335Z,38.07
2018-08-24T06:20:47.588Z,34.37
2018-08-24T06:23:16.984Z,40.67
2018-08-24T06:25:46.332Z,38.30
2018-08-24T06:28:15.631Z,46.73
2018-08-24T06:30:45.115Z,37.83
2018-08-24T06:33:14.452Z,32.50
2018-08-24T06:35:43.903Z,30.97
2018-08-24T06:38:13.270Z,33.43
2018-08-24T06:40:42.531Z,36.60
2018-08-24T06:43:11.919Z,35.87
2018-08-24T06:45:41.193Z,33.87
2018-08-24T06:48:10.368Z,31.40
2018-08-24T06:50:39.750Z,36.47
2018-08-24T06:53:09.376Z,32.37
2018-08-24T06:55:38.659Z,33.17
2018-08-24T06:58:08.067Z,31.20
2018-08-24T07:00:37.498Z,31.07
2018-08-24T07:03:07.336Z,34.30
2018-08-24T07:05:36.856Z,32.93
2018-08-24T07:08:06.302Z,32.23
2018-08-24T07:10:35.618Z,30.37
2018-08-24T07:13:05.090Z,31.57
2018-08-24T07:15:34.397Z,26.70
2018-08-24T07:18:04.247Z,33.57
2018-08-24T07:20:33.642Z,32.00
2018-08-24T07:23:03.036Z,31.77
2018-08-24T07:25:32.260Z,30.60
2018-08-24T07:28:01.604Z,31.30
2018-08-24T07:30:30.846Z,27.90
2018-08-24T07:33:00.120Z,28.00
2018-08-24T07:35:29.305Z,27.47
2018-08-24T07:37:58.856Z,33.00
2018-08-24T07:40:28.309Z,29.07
2018-08-24T07:42:57.673Z,28.50
2018-08-24T07:45:27.394Z,32.97
2018-08-24T07:47:56.929Z,29.30
2018-08-24T07:50:26.269Z,24.17
2018-08-24T07:52:55.629Z,25.20
2018-08-24T07:55:25.025Z,13.77
2018-08-24T07:57:54.346Z,21.50
2018-08-24T08:00:23.715Z,18.30
2018-08-24T08:02:52.865Z,22.60
2018-08-24T08:05:22.254Z,13.67
2018-08-24T08:07:51.976Z,15.87
2018-08-24T08:10:21.432Z,11.40
2018-08-24T08:12:50.748Z,13.57
2018-08-24T08:15:20.100Z,10.70
2018-08-24T08:17:49.482Z,12.43
2018-08-24T08:20:18.787Z,8.90
2018-08-24T08:22:47.983Z,8.93
2018-08-24T08:25:17.387Z,10.30
2018-08-24T08:27:47.959Z,14.13
2018-08-24T08:30:17.142Z,13.63
2018-08-24T08:32:46.394Z,11.57
2018-08-24T08:35:15.797Z,13.80
2018-08-24T08:37:45.207Z,11.17
2018-08-24T08:40:14.406Z,11.47
2018-08-24T08:42:45.271Z,15.63
2018-08-24T08:45:14.606Z,14.50
2018-08-24T08:47:43.883Z,9.47
2018-08-24T08:50:13.165Z,16.00
2018-08-24T08:52:42.648Z,9.30
2018-08-24T08:55:12.074Z,17.63
2018-08-24T08:57:41.494Z,9.13
2018-08-24T09:00:10.781Z,7.60
2018-08-24T09:02:40.104Z,6.73
2018-08-24T09:05:09.467Z,6.53
2018-08-24T09:07:38.657Z,13.23
2018-08-24T09:10:08.012Z,5.57
2018-08-24T09:12:37.490Z,6.93
2018-08-24T09:15:07.262Z,7.90
2018-08-24T09:18:44.336Z,9.10
2018-08-24T09:21:18.546Z,10.83
2018-08-24T09:23:52.961Z,5.90
2018-08-24T09:26:27.561Z,8.43
2018-08-24T09:28:58.654Z,9.13
2018-08-24T09:31:30.707Z,7.80
2018-08-24T09:34:00.284Z,5.93
2018-08-24T09:36:29.638Z,8.93
2018-08-24T09:38:58.994Z,7.67
2018-08-24T09:41:29.282Z,13.20
2018-08-24T09:43:59.836Z,5.73
2018-08-24T09:46:34.265Z,4.97
2018-08-24T09:49:08.679Z,5.43
2018-08-24T09:51:38.088Z,5.97
2018-08-24T09:54:08.746Z,5.30
2018-08-24T09:56:40.246Z,7.03
2018-08-24T09:59:09.453Z,5.77
2018-08-24T10:01:44.162Z,6.90
2018-08-24T10:04:18.584Z,8.43
2018-08-24T10:06:53.103Z,7.33
2018-08-24T10:09:22.362Z,8.87
2018-08-24T10:11:51.475Z,4.60
2018-08-24T10:14:21.007Z,7.97
2018-08-24T10:16:50.313Z,6.03
2018-08-24T10:19:19.603Z,5.50
2018-08-24T10:21:48.886Z,5.00
2018-08-24T10:24:18.002Z,5.00
2018-08-24T10:26:47.398Z,6.17
2018-08-24T10:29:17.342Z,5.13
2018-08-24T10:31:46.643Z,4.93
2018-08-24T10:34:15.951Z,5.40
2018-08-24T10:36:45.303Z,4.77
2018-08-24T10:39:14.920Z,9.43
2018-08-24T10:41:44.440Z,5.00
2018-08-24T10:44:13.884Z,3.67
2018-08-24T10:46:43.244Z,10.80
2018-08-24T10:49:12.536Z,7.83
2018-08-24T10:51:41.808Z,4.43
2018-08-24T10:54:11.056Z,4.03
2018-08-24T10:56:40.568Z,4.70
2018-08-24T10:59:09.995Z,4.13
2018-08-24T11:01:39.387Z,6.17
2018-08-24T11:04:08.874Z,5.23
2018-08-24T11:06:38.070Z,4.03
2018-08-24T11:09:09.269Z,3.87
2018-08-24T11:11:38.887Z,3.90
2018-08-24T11:14:08.280Z,4.03
2018-08-24T11:16:37.831Z,3.33
2018-08-24T11:19:07.112Z,9.53
2018-08-24T11:21:36.296Z,4.27
2018-08-24T11:24:05.603Z,3.67
2018-08-24T11:26:35.165Z,4.60
2018-08-24T11:29:04.695Z,4.37
2018-08-24T11:31:35.201Z,2.67
2018-08-24T11:34:04.586Z,7.43
2018-08-24T11:36:33.881Z,9.17
2018-08-24T11:39:03.348Z,4.53
2018-08-24T11:41:32.794Z,4.20
2018-08-24T11:44:02.075Z,7.17
2018-08-24T11:46:31.542Z,4.53
2018-08-24T11:49:01.249Z,5.97
2018-08-24T11:51:30.766Z,2.67
2018-08-24T11:54:00.452Z,4.43
2018-08-24T11:56:29.651Z,1.73
2018-08-24T11:58:59.089Z,1.50
2018-08-24T12:01:28.370Z,5.00
2018-08-24T12:03:57.545Z,2.30
2018-08-24T12:06:26.726Z,4.67
2018-08-24T12:08:56.111Z,4.43
2018-08-24T12:11:25.455Z,2.70
2018-08-24T12:13:54.736Z,4.47
2018-08-24T12:16:24.161Z,5.47
2018-08-24T12:18:53.533Z,4.47
2018-08-24T12:21:22.997Z,2.43
2018-08-24T12:23:52.330Z,4.37
2018-08-24T12:26:21.737Z,7.30
2018-08-24T12:28:50.976Z,4.63
2018-08-24T12:31:20.388Z,4.23
2018-08-24T12:33:49.702Z,2.70
2018-08-24T12:36:19.094Z,4.43
2018-08-24T12:38:48.564Z,5.00
2018-08-24T12:41:18.094Z,4.67
2018-08-24T12:43:47.433Z,3.77
2018-08-24T12:46:16.646Z,4.40
2018-08-24T12:48:46.485Z,3.70
2018-08-24T12:51:16.047Z,3.73
2018-08-24T12:53:45.583Z,12.37
2018-08-24T12:56:20.068Z,2.55
2018-08-24T12:58:51.349Z,2.57
2018-08-24T13:01:21.132Z,4.50
2018-08-24T13:03:50.619Z,3.47
2018-08-24T13:06:20.007Z,3.40
2018-08-24T13:08:49.443Z,5.03
2018-08-24T13:11:18.956Z,5.03
2018-08-24T13:13:48.343Z,7.23
2018-08-24T13:16:17.849Z,3.55
2018-08-24T13:18:47.391Z,5.08
2018-08-24T13:21:16.810Z,4.95
2018-08-24T13:23:46.115Z,4.80
2018-08-24T13:26:15.489Z,3.27
2018-08-24T13:28:44.899Z,4.93
2018-08-24T13:31:14.503Z,2.87
2018-08-24T13:33:45.091Z,4.83
2018-08-24T13:36:14.837Z,6.03
2018-08-24T13:38:44.257Z,2.80
2018-08-24T13:41:13.650Z,4.97
2018-08-24T13:43:43.122Z,4.10
2018-08-24T13:46:16.495Z,2.87
2018-08-24T13:48:45.809Z,2.13
2018-08-24T13:51:15.283Z,4.10
2018-08-24T13:53:44.919Z,3.72
2018-08-24T13:56:14.581Z,3.90
2018-08-24T13:58:44.010Z,4.08
2018-08-24T14:01:14.344Z,3.15
2018-08-24T14:03:43.753Z,4.25
2018-08-24T14:06:13.140Z,3.27
2018-08-24T14:08:42.589Z,5.05
2018-08-24T14:11:11.972Z,3.50
2018-08-24T14:13:41.424Z,6.67
2018-08-24T14:16:10.492Z,4.15
2018-08-24T14:18:39.792Z,3.40
2018-08-24T14:21:09.337Z,3.65
2018-08-24T14:23:38.573Z,6.22
2018-08-24T14:26:08.196Z,3.62
2018-08-24T14:28:37.655Z,3.62
2018-08-24T14:31:07.200Z,2.75
2018-08-24T14:33:36.604Z,2.73
2018-08-24T14:36:07.453Z,2.77
2018-08-24T14:38:37.001Z,3.30
2018-08-24T14:42:11.558Z,2.20
2018-08-24T14:44:41.046Z,2.47
2018-08-24T14:47:10.178Z,2.73
2018-08-24T14:49:39.511Z,4.10
2018-08-24T14:52:08.925Z,2.50
2018-08-24T14:54:38.287Z,6.50
2018-08-24T14:57:08.452Z,3.20
2018-08-24T14:59:37.966Z,4.50
2018-08-24T15:02:07.300Z,6.13
2018-08-24T15:04:36.535Z,4.33
2018-08-24T15:07:06.154Z,2.70
2018-08-24T15:09:35.567Z,2.90
2018-08-24T15:12:04.998Z,3.70
2018-08-24T15:14:34.327Z,2.40
2018-08-24T15:17:03.624Z,4.07
2018-08-24T15:19:33.037Z,2.27
2018-08-24T15:22:02.345Z,5.63
2018-08-24T15:24:31.747Z,4.57
2018-08-24T15:27:01.120Z,5.50
2018-08-24T15:29:31.431Z,3.10
2018-08-24T15:32:00.746Z,3.90
2018-08-24T15:34:30.056Z,4.60
2018-08-24T15:37:00.114Z,2.57
2018-08-24T15:39:29.319Z,4.87
2018-08-24T15:41:58.725Z,4.03
2018-08-24T15:44:28.130Z,4.27
2018-08-24T15:46:57.450Z,4.13
2018-08-24T15:49:26.892Z,4.10
2018-08-24T15:51:56.165Z,3.17
2018-08-24T15:54:25.494Z,8.57
2018-08-24T15:56:54.890Z,3.10
2018-08-24T15:59:24.361Z,2.10
2018-08-24T16:01:53.662Z,3.33
2018-08-24T16:04:23.114Z,3.10
2018-08-24T16:06:52.373Z,3.03
2018-08-24T16:09:21.689Z,4.80
2018-08-24T16:11:51.073Z,2.90
2018-08-24T16:14:20.421Z,3.17
2018-08-24T16:16:49.668Z,4.40
2018-08-24T16:19:19.146Z,4.20
2018-08-24T16:21:48.626Z,1.57
2018-08-24T16:24:18.228Z,1.77
2018-08-24T16:26:48.933Z,4.23
2018-08-24T16:29:18.176Z,7.17
2018-08-24T16:31:47.496Z,2.27
2018-08-24T16:34:16.813Z,2.33
2018-08-24T16:36:46.340Z,2.63
2018-08-24T16:39:15.579Z,10.33
2018-08-24T16:41:45.012Z,6.07
2018-08-24T16:44:14.483Z,2.03
2018-08-24T16:46:43.703Z,1.70
2018-08-24T16:49:12.915Z,4.00
2018-08-24T16:51:42.293Z,3.90
2018-08-24T16:54:11.555Z,5.40
2018-08-24T16:56:40.821Z,5.73
2018-08-24T16:59:09.971Z,2.93
2018-08-24T17:01:39.331Z,3.93
2018-08-24T17:04:09.048Z,5.73
2018-08-24T17:06:38.437Z,2.77
2018-08-24T17:16:11.190Z,1.60
2018-08-24T17:18:40.428Z,2.70
2018-08-24T17:21:09.462Z,2.77
2018-08-24T17:23:39.494Z,2.60
2018-08-24T17:26:08.916Z,5.10
2018-08-24T17:28:38.343Z,3.57
2018-08-24T17:31:07.734Z,5.63
2018-08-24T17:33:37.897Z,2.67
2018-08-24T17:36:07.295Z,2.40
2018-08-24T17:38:37.902Z,4.40
2018-08-24T17:41:07.132Z,4.73
2018-08-24T17:43:36.534Z,3.77
2018-08-24T17:46:06.171Z,2.03
2018-08-24T17:48:35.689Z,7.87
2018-08-24T17:51:05.054Z,5.77
2018-08-24T17:53:34.433Z,3.03
2018-08-24T17:56:03.723Z,2.77
2018-08-24T17:58:33.047Z,1.70
2018-08-24T18:01:02.381Z,3.33
2018-08-24T18:03:31.760Z,4.50
2018-08-24T18:06:01.358Z,3.70
2018-08-24T18:08:30.722Z,1.60
2018-08-24T18:11:00.300Z,5.03
2018-08-24T18:13:29.508Z,8.30
2018-08-24T18:15:58.906Z,2.10
2018-08-24T18:18:28.193Z,6.67
2018-08-24T18:20:57.618Z,2.90
2018-08-24T18:23:26.954Z,4.87
2018-08-24T18:25:56.320Z,2.43
2018-08-24T18:28:25.624Z,4.53
2018-08-24T18:30:54.941Z,4.50
2018-08-24T18:33:24.272Z,4.90
2018-08-24T18:35:53.743Z,2.27
2018-08-24T18:38:23.157Z,4.20
2018-08-24T18:40:53.979Z,3.33
2018-08-24T18:43:23.198Z,2.80
2018-08-24T18:45:52.601Z,2.17
2018-08-24T18:48:21.988Z,2.63
2018-08-24T18:50:51.433Z,4.90
2018-08-24T18:53:20.525Z,3.00
2018-08-24T18:55:49.804Z,4.60
2018-08-24T18:58:19.182Z,4.27
2018-08-24T19:00:48.506Z,1.57
2018-08-24T19:03:17.661Z,4.50
2018-08-24T19:05:47.117Z,3.67
2018-08-24T19:08:16.455Z,3.50
2018-08-24T19:10:50.829Z,3.27
2018-08-24T19:13:19.975Z,2.47
2018-08-24T19:15:49.206Z,3.80
2018-08-24T19:18:23.492Z,3.07
2018-08-24T19:20:57.976Z,2.23
2018-08-24T19:23:27.308Z,5.17
2018-08-24T19:25:56.562Z,7.73
2018-08-24T19:28:30.862Z,5.87
2018-08-24T19:31:00.248Z,3.57
2018-08-24T19:33:29.636Z,2.30
2018-08-24T19:35:59.173Z,3.87
2018-08-24T19:38:28.351Z,1.97
2018-08-24T19:41:03.725Z,3.37
2018-08-24T19:43:33.020Z,2.77
2018-08-24T19:46:02.311Z,3.03
2018-08-24T19:48:36.669Z,3.33
2018-08-24T19:51:06.128Z,4.93
2018-08-24T19:53:35.451Z,5.10
2018-08-24T19:56:04.630Z,5.77
2018-08-24T19:58:38.833Z,4.60
2018-08-24T20:01:08.043Z,6.57
2018-08-24T20:03:37.354Z,2.53
2018-08-24T20:06:12.009Z,7.03
2018-08-24T20:08:46.427Z,3.40
2018-08-24T20:11:15.703Z,3.63
2018-08-24T20:13:44.885Z,3.17
2018-08-24T20:16:19.212Z,4.93
2018-08-24T20:18:49.277Z,5.80
2018-08-24T20:21:18.499Z,3.70
2018-08-24T20:23:47.822Z,3.00
2018-08-24T20:26:17.003Z,6.80
2018-08-24T20:28:46.254Z,6.67
2018-08-24T20:31:15.582Z,4.40
2018-08-24T20:33:44.871Z,2.47
2018-08-24T20:36:14.197Z,2.10
2018-08-24T20:38:43.776Z,4.23
2018-08-24T20:41:14.586Z,4.93
2018-08-24T20:43:43.838Z,6.47
2018-08-24T20:46:13.065Z,4.10
2018-08-24T20:48:42.288Z,2.40
2018-08-24T20:51:11.613Z,2.37
2018-08-24T20:53:40.732Z,3.83
2018-08-24T20:56:10.115Z,2.60
2018-08-24T20:58:39.434Z,4.00
2018-08-24T21:01:10.207Z,2.60
2018-08-24T21:03:39.582Z,4.43
2018-08-24T21:06:08.936Z,2.90
2018-08-24T21:08:38.335Z,3.13
2018-08-24T21:11:07.583Z,5.17
2018-08-24T21:13:36.768Z,3.37
2018-08-24T21:16:06.153Z,3.83
2018-08-24T21:18:35.425Z,1.57
2018-08-24T21:21:04.748Z,2.03
2018-08-24T21:23:36.048Z,2.60
2018-08-24T21:26:05.405Z,4.17
2018-08-24T21:28:34.674Z,5.53
2018-08-24T21:31:04.096Z,2.20
2018-08-24T21:33:33.351Z,3.23
2018-08-24T21:36:02.563Z,2.47
2018-08-24T21:38:31.899Z,3.10
2018-08-24T21:41:01.217Z,2.27
2018-08-24T21:43:30.730Z,3.53
2018-08-24T21:46:00.041Z,1.47
2018-08-24T21:48:29.442Z,3.00
2018-08-24T21:50:58.913Z,3.03
2018-08-24T21:53:28.397Z,2.20
2018-08-24T21:55:57.810Z,2.43
2018-08-24T21:58:27.107Z,3.40
2018-08-24T22:00:56.339Z,2.93
2018-08-24T22:03:25.643Z,1.60
2018-08-24T22:05:54.967Z,2.30
2018-08-24T22:08:24.246Z,4.57
2018-08-24T22:10:53.647Z,1.20
2018-08-24T22:13:23.038Z,1.40
2018-08-24T22:15:52.568Z,1.77
2018-08-24T22:18:21.904Z,2.03
2018-08-24T22:20:51.182Z,3.93
2018-08-24T22:23:20.571Z,3.10
2018-08-24T22:25:49.976Z,4.70
2018-08-24T22:28:19.373Z,2.37
2018-08-24T22:30:48.673Z,5.60
2018-08-24T22:33:18.183Z,4.03
2018-08-24T22:35:47.514Z,1.70
2018-08-24T22:38:16.851Z,6.10
2018-08-24T22:40:46.142Z,3.97
2018-08-24T22:43:21.483Z,7.73
2018-08-24T22:45:50.752Z,4.53
2018-08-24T22:48:20.091Z,5.00
2018-08-24T22:50:50.344Z,2.90
2018-08-24T22:53:19.690Z,3.70
2018-08-24T22:55:48.892Z,4.70
2018-08-24T22:58:18.371Z,3.27
2018-08-24T23:00:47.791Z,4.87
2018-08-24T23:03:17.261Z,3.87
2018-08-24T23:05:46.625Z,2.03
2018-08-24T23:08:15.928Z,4.60
2018-08-24T23:10:45.169Z,4.67
2018-08-24T23:13:14.340Z,6.03
2018-08-24T23:15:43.721Z,3.13
2018-08-24T23:18:13.195Z,5.27
2018-08-24T23:20:42.549Z,3.00
2018-08-24T23:23:12.068Z,4.20
2018-08-24T23:25:41.317Z,4.53
2018-08-24T23:28:10.811Z,6.13
2018-08-24T23:30:40.201Z,2.60
2018-08-24T23:33:09.693Z,3.13
2018-08-24T23:35:38.809Z,2.80
2018-08-24T23:38:07.856Z,3.53
2018-08-24T23:40:36.976Z,5.07
2018-08-24T23:43:06.361Z,7.43
2018-08-24T23:45:36.259Z,3.70
2018-08-24T23:48:05.561Z,4.27
2018-08-24T23:50:34.952Z,6.90
2018-08-24T23:53:04.310Z,2.40
2018-08-24T23:55:33.709Z,3.80
2018-08-24T23:58:03.533Z,4.63
